sensor_id;sensor_type;location;lat;lon;timestamp;pressure;altitude;pressure_sealevel;temperature;humidity
41862;BME280;27537;57.134;-2.136;2023-02-20T00:00:31;99823.53;;;9.57;100.00
41862;BME280;27537;57.134;-2.136;2023-02-20T00:02:58;99779.03;;;9.22;100.00
41862;BME280;27537;57.134;-2.136;2023-02-20T00:05:25;99843.63;;;9.57;100.00
41862;BME280;27537;57.134;-2.136;2023-02-20T00:07:52;99796.84;;;9.33;100.00
41862;BME280;27537;57.134;-2.136;2023-02-20T00:10:19;99824.00;;;9.48;100.00
41862;BME280;27537;57.134;-2.136;2023-02-20T00:12:45;99786.59;;;9.28;100.00
41862;BME280;27537;57.134;-2.136;2023-02-20T00:15:14;99821.78;;;9.58;100.00
41862;BME280;27537;57.134;-2.136;2023-02-20T00:17:42;99824.25;;;9.61;100.00
41862;BME280;27537;57.134;-2.136;2023-02-20T00:20:10;99788.56;;;9.23;100.00
41862;BME280;27537;57.134;-2.136;2023-02-20T00:22:37;99746.88;;;9.03;100.00
41862;BME280;27537;57.134;-2.136;2023-02-20T00:25:03;99787.56;;;9.26;100.00
41862;BME280;27537;57.134;-2.136;2023-02-20T00:27:30;99793.72;;;9.25;100.00
41862;BME280;27537;57.134;-2.136;2023-02-20T00:29:57;99763.53;;;9.19;100.00
41862;BME280;27537;57.134;-2.136;2023-02-20T00:32:24;99744.56;;;8.97;100.00
41862;BME280;27537;57.134;-2.136;2023-02-20T00:34:50;99764.22;;;9.23;100.00
41862;BME280;27537;57.134;-2.136;2023-02-20T00:37:17;99761.19;;;9.13;100.00
41862;BME280;27537;57.134;-2.136;2023-02-20T00:39:44;99754.69;;;9.22;100.00
41862;BME280;27537;57.134;-2.136;2023-02-20T00:42:10;99779.13;;;9.21;100.00
41862;BME280;27537;57.134;-2.136;2023-02-20T00:44:37;99804.22;;;9.42;100.00
41862;BME280;27537;57.134;-2.136;2023-02-20T00:47:04;99753.03;;;9.02;100.00
41862;BME280;27537;57.134;-2.136;2023-02-20T00:49:31;99746.22;;;9.17;100.00
41862;BME280;27537;57.134;-2.136;2023-02-20T00:51:57;99747.56;;;9.06;100.00
41862;BME280;27537;57.134;-2.136;2023-02-20T00:54:24;99756.22;;;9.08;100.00
41862;BME280;27537;57.134;-2.136;2023-02-20T00:56:51;99754.81;;;9.19;100.00
41862;BME280;27537;57.134;-2.136;2023-02-20T00:59:18;99761.13;;;9.15;100.00
41862;BME280;27537;57.134;-2.136;2023-02-20T01:01:44;99755.06;;;9.14;100.00
41862;BME280;27537;57.134;-2.136;2023-02-20T01:04:14;99755.41;;;9.06;100.00
41862;BME280;27537;57.134;-2.136;2023-02-20T01:06:44;99779.13;;;9.21;100.00
41862;BME280;27537;57.134;-2.136;2023-02-20T01:09:11;99775.94;;;9.33;100.00
41862;BME280;27537;57.134;-2.136;2023-02-20T01:11:43;99751.44;;;9.17;100.00
41862;BME280;27537;57.134;-2.136;2023-02-20T01:14:11;99790.41;;;9.40;100.00
41862;BME280;27537;57.134;-2.136;2023-02-20T01:16:46;99789.59;;;9.38;100.00
41862;BME280;27537;57.134;-2.136;2023-02-20T01:19:14;99783.34;;;9.42;100.00
41862;BME280;27537;57.134;-2.136;2023-02-20T01:21:41;99759.97;;;9.20;100.00
41862;BME280;27537;57.134;-2.136;2023-02-20T01:24:08;99731.84;;;9.08;100.00
41862;BME280;27537;57.134;-2.136;2023-02-20T01:26:35;99795.31;;;9.46;100.00
41862;BME280;27537;57.134;-2.136;2023-02-20T01:29:03;99789.09;;;9.49;100.00
41862;BME280;27537;57.134;-2.136;2023-02-20T01:31:30;99723.53;;;9.00;100.00
41862;BME280;27537;57.134;-2.136;2023-02-20T01:33:56;99729.16;;;9.09;100.00
41862;BME280;27537;57.134;-2.136;2023-02-20T01:36:23;99788.88;;;9.54;100.00
41862;BME280;27537;57.134;-2.136;2023-02-20T01:38:50;99727.34;;;9.29;100.00
41862;BME280;27537;57.134;-2.136;2023-02-20T01:41:17;99771.69;;;9.67;100.00
41862;BME280;27537;57.134;-2.136;2023-02-20T01:43:45;99774.59;;;9.78;100.00
41862;BME280;27537;57.134;-2.136;2023-02-20T01:49:08;99769.13;;;10.18;100.00
41862;BME280;27537;57.134;-2.136;2023-02-20T01:51:43;99755.53;;;10.11;100.00
41862;BME280;27537;57.134;-2.136;2023-02-20T01:54:14;99721.00;;;10.04;100.00
41862;BME280;27537;57.134;-2.136;2023-02-20T01:56:42;99728.91;;;10.20;100.00
41862;BME280;27537;57.134;-2.136;2023-02-20T01:59:11;99730.03;;;10.32;100.00
41862;BME280;27537;57.134;-2.136;2023-02-20T02:01:39;99704.34;;;10.23;100.00
41862;BME280;27537;57.134;-2.136;2023-02-20T02:04:08;99683.47;;;10.21;100.00
41862;BME280;27537;57.134;-2.136;2023-02-20T02:06:39;99693.53;;;10.13;100.00
41862;BME280;27537;57.134;-2.136;2023-02-20T02:09:46;99712.84;;;10.44;100.00
41862;BME280;27537;57.134;-2.136;2023-02-20T02:12:04;99697.94;;;10.29;100.00
41862;BME280;27537;57.134;-2.136;2023-02-20T02:14:30;99697.16;;;10.26;100.00
41862;BME280;27537;57.134;-2.136;2023-02-20T02:25:59;99767.13;;;10.90;100.00
41862;BME280;27537;57.134;-2.136;2023-02-20T02:28:40;99777.09;;;10.99;100.00
41862;BME280;27537;57.134;-2.136;2023-02-20T02:42:26;99760.97;;;11.23;100.00
41862;BME280;27537;57.134;-2.136;2023-02-20T02:45:02;99700.56;;;10.94;100.00
41862;BME280;27537;57.134;-2.136;2023-02-20T02:47:56;99706.53;;;10.96;100.00
41862;BME280;27537;57.134;-2.136;2023-02-20T02:50:32;99722.09;;;10.99;100.00
41862;BME280;27537;57.134;-2.136;2023-02-20T02:53:04;99684.69;;;10.65;100.00
41862;BME280;27537;57.134;-2.136;2023-02-20T02:55:32;99689.25;;;10.77;100.00
41862;BME280;27537;57.134;-2.136;2023-02-20T02:58:00;99751.25;;;11.09;100.00
41862;BME280;27537;57.134;-2.136;2023-02-20T03:00:50;99760.69;;;11.27;100.00
41862;BME280;27537;57.134;-2.136;2023-02-20T03:03:28;99720.00;;;11.06;100.00
41862;BME280;27537;57.134;-2.136;2023-02-20T03:08:39;99663.41;;;10.87;100.00
41862;BME280;27537;57.134;-2.136;2023-02-20T03:11:18;99731.06;;;11.11;100.00
41862;BME280;27537;57.134;-2.136;2023-02-20T03:14:17;99699.38;;;10.83;100.00
41862;BME280;27537;57.134;-2.136;2023-02-20T03:17:20;99742.28;;;10.97;100.00
41862;BME280;27537;57.134;-2.136;2023-02-20T03:19:54;99739.50;;;11.00;100.00
41862;BME280;27537;57.134;-2.136;2023-02-20T03:24:51;99728.44;;;10.95;100.00
41862;BME280;27537;57.134;-2.136;2023-02-20T03:27:29;99672.09;;;10.56;100.00
41862;BME280;27537;57.134;-2.136;2023-02-20T03:29:57;99742.97;;;11.16;100.00
41862;BME280;27537;57.134;-2.136;2023-02-20T03:32:26;99716.16;;;11.27;100.00
41862;BME280;27537;57.134;-2.136;2023-02-20T03:35:15;99696.53;;;11.34;100.00
41862;BME280;27537;57.134;-2.136;2023-02-20T03:38:03;99702.13;;;11.58;100.00
41862;BME280;27537;57.134;-2.136;2023-02-20T03:40:50;99696.00;;;11.74;100.00
41862;BME280;27537;57.134;-2.136;2023-02-20T03:43:37;99686.28;;;11.76;100.00
41862;BME280;27537;57.134;-2.136;2023-02-20T03:46:11;99695.41;;;11.99;100.00
41862;BME280;27537;57.134;-2.136;2023-02-20T03:48:44;99719.78;;;12.01;100.00
41862;BME280;27537;57.134;-2.136;2023-02-20T03:51:12;99669.09;;;12.15;100.00
41862;BME280;27537;57.134;-2.136;2023-02-20T03:53:40;99720.91;;;12.40;100.00
41862;BME280;27537;57.134;-2.136;2023-02-20T03:56:14;99695.41;;;12.28;100.00
41862;BME280;27537;57.134;-2.136;2023-02-20T03:58:45;99699.09;;;12.25;100.00
41862;BME280;27537;57.134;-2.136;2023-02-20T04:01:14;99687.47;;;12.15;100.00
41862;BME280;27537;57.134;-2.136;2023-02-20T04:03:45;99707.06;;;12.38;100.00
41862;BME280;27537;57.134;-2.136;2023-02-20T04:06:15;99712.97;;;12.42;100.00
41862;BME280;27537;57.134;-2.136;2023-02-20T04:12:16;99675.47;;;12.25;100.00
41862;BME280;27537;57.134;-2.136;2023-02-20T04:14:48;99708.44;;;12.44;100.00
41862;BME280;27537;57.134;-2.136;2023-02-20T04:17:23;99745.56;;;12.66;100.00
41862;BME280;27537;57.134;-2.136;2023-02-20T04:19:51;99698.03;;;12.42;100.00
41862;BME280;27537;57.134;-2.136;2023-02-20T04:22:24;99733.84;;;12.58;100.00
41862;BME280;27537;57.134;-2.136;2023-02-20T04:24:58;99774.06;;;12.72;100.00
41862;BME280;27537;57.134;-2.136;2023-02-20T04:27:26;99713.22;;;12.37;100.00
41862;BME280;27537;57.134;-2.136;2023-02-20T04:29:53;99731.59;;;12.51;100.00
41862;BME280;27537;57.134;-2.136;2023-02-20T04:32:20;99734.13;;;12.53;100.00
41862;BME280;27537;57.134;-2.136;2023-02-20T04:34:47;99753.38;;;12.68;100.00
41862;BME280;27537;57.134;-2.136;2023-02-20T04:37:15;99747.72;;;12.60;100.00
41862;BME280;27537;57.134;-2.136;2023-02-20T04:39:44;99728.50;;;12.59;100.00
41862;BME280;27537;57.134;-2.136;2023-02-20T04:42:12;99781.28;;;12.83;100.00
41862;BME280;27537;57.134;-2.136;2023-02-20T04:44:39;99717.72;;;12.35;100.00
41862;BME280;27537;57.134;-2.136;2023-02-20T04:47:09;99775.78;;;12.73;100.00
41862;BME280;27537;57.134;-2.136;2023-02-20T04:49:37;99748.47;;;12.47;100.00
41862;BME280;27537;57.134;-2.136;2023-02-20T04:52:03;99737.88;;;12.49;100.00
41862;BME280;27537;57.134;-2.136;2023-02-20T04:54:30;99751.19;;;12.46;100.00
41862;BME280;27537;57.134;-2.136;2023-02-20T04:56:57;99754.56;;;12.33;100.00
41862;BME280;27537;57.134;-2.136;2023-02-20T04:59:24;99750.53;;;12.28;100.00
41862;BME280;27537;57.134;-2.136;2023-02-20T05:01:51;99742.19;;;12.21;100.00
41862;BME280;27537;57.134;-2.136;2023-02-20T05:04:20;99790.50;;;12.47;100.00
41862;BME280;27537;57.134;-2.136;2023-02-20T05:06:51;99744.16;;;12.18;100.00
41862;BME280;27537;57.134;-2.136;2023-02-20T05:09:19;99797.88;;;12.41;100.00
41862;BME280;27537;57.134;-2.136;2023-02-20T05:11:47;99732.97;;;12.00;100.00
41862;BME280;27537;57.134;-2.136;2023-02-20T05:14:14;99768.22;;;12.10;100.00
41862;BME280;27537;57.134;-2.136;2023-02-20T05:16:41;99811.38;;;12.34;100.00
41862;BME280;27537;57.134;-2.136;2023-02-20T05:19:08;99744.13;;;12.03;100.00
41862;BME280;27537;57.134;-2.136;2023-02-20T05:21:35;99746.19;;;12.12;100.00
41862;BME280;27537;57.134;-2.136;2023-02-20T05:24:20;99803.34;;;12.52;100.00
41862;BME280;27537;57.134;-2.136;2023-02-20T05:26:47;99784.66;;;12.28;100.00
41862;BME280;27537;57.134;-2.136;2023-02-20T05:29:14;99757.75;;;12.24;100.00
41862;BME280;27537;57.134;-2.136;2023-02-20T05:31:41;99784.84;;;12.39;100.00
41862;BME280;27537;57.134;-2.136;2023-02-20T05:34:08;99818.44;;;12.63;100.00
41862;BME280;27537;57.134;-2.136;2023-02-20T05:36:35;99790.97;;;12.40;100.00
41862;BME280;27537;57.134;-2.136;2023-02-20T05:39:03;99796.22;;;12.40;100.00
41862;BME280;27537;57.134;-2.136;2023-02-20T05:41:30;99758.41;;;12.28;100.00
41862;BME280;27537;57.134;-2.136;2023-02-20T05:43:57;99780.56;;;12.38;100.00
41862;BME280;27537;57.134;-2.136;2023-02-20T05:46:26;99827.06;;;12.65;100.00
41862;BME280;27537;57.134;-2.136;2023-02-20T05:48:53;99834.78;;;12.82;100.00
41862;BME280;27537;57.134;-2.136;2023-02-20T05:51:23;99805.84;;;12.53;100.00
41862;BME280;27537;57.134;-2.136;2023-02-20T05:53:51;99784.31;;;12.48;100.00
41862;BME280;27537;57.134;-2.136;2023-02-20T05:56:18;99819.03;;;12.68;100.00
41862;BME280;27537;57.134;-2.136;2023-02-20T05:58:46;99839.28;;;12.80;100.00
41862;BME280;27537;57.134;-2.136;2023-02-20T06:01:20;99830.75;;;12.77;100.00
41862;BME280;27537;57.134;-2.136;2023-02-20T06:03:48;99822.19;;;12.59;100.00
41862;BME280;27537;57.134;-2.136;2023-02-20T06:06:15;99838.41;;;12.65;100.00
41862;BME280;27537;57.134;-2.136;2023-02-20T06:08:42;99798.63;;;12.28;100.00
41862;BME280;27537;57.134;-2.136;2023-02-20T06:11:11;99859.44;;;12.65;100.00
41862;BME280;27537;57.134;-2.136;2023-02-20T06:13:42;99864.41;;;12.70;100.00
41862;BME280;27537;57.134;-2.136;2023-02-20T06:16:10;99844.22;;;12.56;100.00
41862;BME280;27537;57.134;-2.136;2023-02-20T06:18:39;99906.50;;;12.54;100.00
41862;BME280;27537;57.134;-2.136;2023-02-20T06:21:10;99842.00;;;11.73;100.00
41862;BME280;27537;57.134;-2.136;2023-02-20T06:23:37;99920.81;;;11.86;100.00
41862;BME280;27537;57.134;-2.136;2023-02-20T06:26:05;99863.19;;;11.38;100.00
41862;BME280;27537;57.134;-2.136;2023-02-20T06:28:32;99896.53;;;11.35;100.00
41862;BME280;27537;57.134;-2.136;2023-02-20T06:30:59;99893.69;;;11.39;100.00
41862;BME280;27537;57.134;-2.136;2023-02-20T06:33:28;99893.50;;;11.27;100.00
41862;BME280;27537;57.134;-2.136;2023-02-20T06:35:55;99915.31;;;11.27;100.00
41862;BME280;27537;57.134;-2.136;2023-02-20T06:38:23;99920.66;;;11.08;100.00
41862;BME280;27537;57.134;-2.136;2023-02-20T06:40:50;99899.69;;;10.92;100.00
41862;BME280;27537;57.134;-2.136;2023-02-20T06:43:17;99869.31;;;10.72;100.00
41862;BME280;27537;57.134;-2.136;2023-02-20T06:45:44;99881.47;;;10.73;100.00
41862;BME280;27537;57.134;-2.136;2023-02-20T06:48:11;99862.06;;;10.60;100.00
41862;BME280;27537;57.134;-2.136;2023-02-20T06:50:40;99891.13;;;10.55;100.00
41862;BME280;27537;57.134;-2.136;2023-02-20T06:53:07;99921.66;;;10.72;100.00
41862;BME280;27537;57.134;-2.136;2023-02-20T06:55:34;99877.03;;;10.40;100.00
41862;BME280;27537;57.134;-2.136;2023-02-20T06:58:01;99919.22;;;10.52;100.00
41862;BME280;27537;57.134;-2.136;2023-02-20T07:00:28;99902.44;;;10.56;100.00
41862;BME280;27537;57.134;-2.136;2023-02-20T07:02:55;99910.97;;;10.59;100.00
41862;BME280;27537;57.134;-2.136;2023-02-20T07:05:21;99896.03;;;10.44;100.00
41862;BME280;27537;57.134;-2.136;2023-02-20T07:07:48;99939.44;;;10.66;100.00
41862;BME280;27537;57.134;-2.136;2023-02-20T07:10:15;99959.31;;;10.87;100.00
41862;BME280;27537;57.134;-2.136;2023-02-20T07:12:42;99935.91;;;10.67;100.00
41862;BME280;27537;57.134;-2.136;2023-02-20T07:15:09;99950.38;;;10.74;100.00
41862;BME280;27537;57.134;-2.136;2023-02-20T07:17:37;99956.09;;;10.64;100.00
41862;BME280;27537;57.134;-2.136;2023-02-20T07:20:04;99972.19;;;10.74;100.00
41862;BME280;27537;57.134;-2.136;2023-02-20T07:22:32;99960.25;;;10.69;100.00
41862;BME280;27537;57.134;-2.136;2023-02-20T07:24:59;99942.00;;;10.50;100.00
41862;BME280;27537;57.134;-2.136;2023-02-20T07:27:28;99974.97;;;10.54;100.00
41862;BME280;27537;57.134;-2.136;2023-02-20T07:29:56;99986.44;;;10.69;100.00
41862;BME280;27537;57.134;-2.136;2023-02-20T07:32:24;99961.47;;;10.44;100.00
41862;BME280;27537;57.134;-2.136;2023-02-20T07:34:51;99977.50;;;10.73;100.00
41862;BME280;27537;57.134;-2.136;2023-02-20T07:37:30;99997.88;;;10.83;100.00
41862;BME280;27537;57.134;-2.136;2023-02-20T07:39:57;99945.00;;;10.42;100.00
41862;BME280;27537;57.134;-2.136;2023-02-20T07:42:23;99952.53;;;10.48;100.00
41862;BME280;27537;57.134;-2.136;2023-02-20T07:44:50;99996.22;;;10.65;100.00
41862;BME280;27537;57.134;-2.136;2023-02-20T07:47:17;99967.41;;;10.48;100.00
41862;BME280;27537;57.134;-2.136;2023-02-20T07:49:44;100001.38;;;10.67;100.00
41862;BME280;27537;57.134;-2.136;2023-02-20T07:52:11;100030.88;;;10.88;100.00
41862;BME280;27537;57.134;-2.136;2023-02-20T07:54:39;99987.72;;;10.60;100.00
41862;BME280;27537;57.134;-2.136;2023-02-20T07:57:06;100002.53;;;10.78;100.00
41862;BME280;27537;57.134;-2.136;2023-02-20T07:59:32;99996.69;;;10.73;100.00
41862;BME280;27537;57.134;-2.136;2023-02-20T08:01:59;99975.72;;;10.56;100.00
41862;BME280;27537;57.134;-2.136;2023-02-20T08:04:26;100031.09;;;10.83;100.00
41862;BME280;27537;57.134;-2.136;2023-02-20T08:06:53;99987.88;;;10.57;100.00
41862;BME280;27537;57.134;-2.136;2023-02-20T08:09:19;100001.13;;;10.54;100.00
41862;BME280;27537;57.134;-2.136;2023-02-20T08:11:46;99999.34;;;10.54;100.00
41862;BME280;27537;57.134;-2.136;2023-02-20T08:14:14;100069.69;;;10.97;100.00
41862;BME280;27537;57.134;-2.136;2023-02-20T08:16:41;100026.63;;;10.50;100.00
41862;BME280;27537;57.134;-2.136;2023-02-20T08:19:08;100034.84;;;10.60;100.00
41862;BME280;27537;57.134;-2.136;2023-02-20T08:21:34;100031.69;;;10.53;100.00
41862;BME280;27537;57.134;-2.136;2023-02-20T08:24:01;100040.91;;;10.43;100.00
41862;BME280;27537;57.134;-2.136;2023-02-20T08:26:28;100011.88;;;10.29;100.00
41862;BME280;27537;57.134;-2.136;2023-02-20T08:28:55;100022.81;;;10.38;100.00
41862;BME280;27537;57.134;-2.136;2023-02-20T08:31:22;100072.81;;;10.69;100.00
41862;BME280;27537;57.134;-2.136;2023-02-20T08:33:58;100105.88;;;10.89;100.00
41862;BME280;27537;57.134;-2.136;2023-02-20T08:36:25;100055.03;;;10.58;100.00
41862;BME280;27537;57.134;-2.136;2023-02-20T08:38:51;100083.19;;;10.53;100.00
41862;BME280;27537;57.134;-2.136;2023-02-20T08:41:19;100114.75;;;10.86;100.00
41862;BME280;27537;57.134;-2.136;2023-02-20T08:43:46;100053.69;;;10.49;100.00
41862;BME280;27537;57.134;-2.136;2023-02-20T08:46:13;100071.13;;;10.50;100.00
41862;BME280;27537;57.134;-2.136;2023-02-20T08:48:40;100100.03;;;10.47;100.00
41862;BME280;27537;57.134;-2.136;2023-02-20T08:51:08;100131.81;;;10.76;100.00
41862;BME280;27537;57.134;-2.136;2023-02-20T08:53:37;100102.72;;;10.64;100.00
41862;BME280;27537;57.134;-2.136;2023-02-20T08:56:05;100074.06;;;10.42;100.00
41862;BME280;27537;57.134;-2.136;2023-02-20T08:58:32;100102.28;;;10.55;100.00
41862;BME280;27537;57.134;-2.136;2023-02-20T09:00:59;100083.78;;;10.40;100.00
41862;BME280;27537;57.134;-2.136;2023-02-20T09:03:26;100139.56;;;10.60;100.00
41862;BME280;27537;57.134;-2.136;2023-02-20T09:05:52;100139.69;;;10.57;100.00
41862;BME280;27537;57.134;-2.136;2023-02-20T09:08:19;100100.25;;;10.42;100.00
41862;BME280;27537;57.134;-2.136;2023-02-20T09:10:46;100145.56;;;10.62;100.00
41862;BME280;27537;57.134;-2.136;2023-02-20T09:13:13;100096.84;;;10.40;100.00
41862;BME280;27537;57.134;-2.136;2023-02-20T09:15:40;100134.47;;;10.57;100.00
41862;BME280;27537;57.134;-2.136;2023-02-20T09:18:11;100149.13;;;10.61;100.00
41862;BME280;27537;57.134;-2.136;2023-02-20T09:20:38;100159.81;;;10.56;100.00
41862;BME280;27537;57.134;-2.136;2023-02-20T09:23:06;100151.94;;;10.75;100.00
41862;BME280;27537;57.134;-2.136;2023-02-20T09:25:34;100162.41;;;10.75;100.00
41862;BME280;27537;57.134;-2.136;2023-02-20T09:28:01;100096.19;;;10.16;100.00
41862;BME280;27537;57.134;-2.136;2023-02-20T09:30:28;100136.63;;;10.49;100.00
41862;BME280;27537;57.134;-2.136;2023-02-20T09:32:55;100144.34;;;10.52;100.00
41862;BME280;27537;57.134;-2.136;2023-02-20T09:35:25;100171.28;;;10.54;100.00
41862;BME280;27537;57.134;-2.136;2023-02-20T09:37:52;100118.88;;;10.36;100.00
41862;BME280;27537;57.134;-2.136;2023-02-20T09:40:24;100122.25;;;10.38;100.00
41862;BME280;27537;57.134;-2.136;2023-02-20T09:43:15;100176.41;;;10.74;100.00
41862;BME280;27537;57.134;-2.136;2023-02-20T09:45:52;100126.84;;;10.52;100.00
41862;BME280;27537;57.134;-2.136;2023-02-20T09:51:18;100132.91;;;10.34;100.00
41862;BME280;27537;57.134;-2.136;2023-02-20T09:56:31;100161.50;;;10.57;100.00
41862;BME280;27537;57.134;-2.136;2023-02-20T10:01:28;100177.50;;;10.70;100.00
41862;BME280;27537;57.134;-2.136;2023-02-20T10:04:24;100167.22;;;10.66;100.00
41862;BME280;27537;57.134;-2.136;2023-02-20T10:06:59;100173.59;;;10.60;100.00
41862;BME280;27537;57.134;-2.136;2023-02-20T10:09:33;100154.00;;;10.50;100.00
41862;BME280;27537;57.134;-2.136;2023-02-20T10:21:38;100210.06;;;11.01;100.00
41862;BME280;27537;57.134;-2.136;2023-02-20T10:26:51;100218.00;;;10.99;100.00
41862;BME280;27537;57.134;-2.136;2023-02-20T10:29:24;100197.13;;;10.98;100.00
41862;BME280;27537;57.134;-2.136;2023-02-20T10:32:05;100167.97;;;10.50;100.00
41862;BME280;27537;57.134;-2.136;2023-02-20T10:37:14;100186.69;;;10.60;100.00
41862;BME280;27537;57.134;-2.136;2023-02-20T10:39:59;100183.88;;;10.64;100.00
41862;BME280;27537;57.134;-2.136;2023-02-20T10:42:38;100189.44;;;10.57;100.00
41862;BME280;27537;57.134;-2.136;2023-02-20T10:45:26;100215.75;;;10.73;100.00
41862;BME280;27537;57.134;-2.136;2023-02-20T10:48:08;100224.31;;;10.95;100.00
41862;BME280;27537;57.134;-2.136;2023-02-20T10:53:23;100187.19;;;10.68;100.00
41862;BME280;27537;57.134;-2.136;2023-02-20T10:58:40;100255.16;;;11.08;100.00
41862;BME280;27537;57.134;-2.136;2023-02-20T11:01:13;100255.66;;;11.16;100.00
41862;BME280;27537;57.134;-2.136;2023-02-20T11:04:01;100257.06;;;11.23;100.00
41862;BME280;27537;57.134;-2.136;2023-02-20T11:06:33;100198.53;;;11.05;100.00
41862;BME280;27537;57.134;-2.136;2023-02-20T11:09:02;100193.72;;;10.96;100.00
41862;BME280;27537;57.134;-2.136;2023-02-20T11:11:35;100220.84;;;11.14;100.00
41862;BME280;27537;57.134;-2.136;2023-02-20T11:14:20;100252.91;;;11.36;100.00
41862;BME280;27537;57.134;-2.136;2023-02-20T11:17:18;100257.94;;;11.41;100.00
41862;BME280;27537;57.134;-2.136;2023-02-20T11:22:14;100177.41;;;10.91;100.00
41862;BME280;27537;57.134;-2.136;2023-02-20T11:24:42;100220.31;;;11.25;100.00
41862;BME280;27537;57.134;-2.136;2023-02-20T11:27:23;100220.19;;;11.09;100.00
41862;BME280;27537;57.134;-2.136;2023-02-20T11:30:02;100251.94;;;11.39;100.00
41862;BME280;27537;57.134;-2.136;2023-02-20T11:32:32;100181.44;;;11.15;100.00
41862;BME280;27537;57.134;-2.136;2023-02-20T11:38:35;100237.78;;;11.24;100.00
41862;BME280;27537;57.134;-2.136;2023-02-20T11:40:37;100188.78;;;11.44;100.00
41862;BME280;27537;57.134;-2.136;2023-02-20T11:45:40;100200.91;;;11.64;100.00
41862;BME280;27537;57.134;-2.136;2023-02-20T11:48:18;100238.94;;;11.90;100.00
41862;BME280;27537;57.134;-2.136;2023-02-20T11:50:48;100239.34;;;12.33;100.00
41862;BME280;27537;57.134;-2.136;2023-02-20T11:55:47;100247.34;;;12.47;100.00
41862;BME280;27537;57.134;-2.136;2023-02-20T11:58:26;100249.44;;;12.41;100.00
41862;BME280;27537;57.134;-2.136;2023-02-20T12:00:54;100224.22;;;12.38;100.00
41862;BME280;27537;57.134;-2.136;2023-02-20T12:03:22;100249.72;;;12.52;100.00
41862;BME280;27537;57.134;-2.136;2023-02-20T12:05:50;100234.66;;;12.56;100.00
41862;BME280;27537;57.134;-2.136;2023-02-20T12:08:52;100249.03;;;12.48;100.00
41862;BME280;27537;57.134;-2.136;2023-02-20T12:11:24;100247.06;;;12.36;100.00
41862;BME280;27537;57.134;-2.136;2023-02-20T12:13:53;100210.84;;;12.09;100.00
41862;BME280;27537;57.134;-2.136;2023-02-20T12:19:16;100247.38;;;12.63;100.00
41862;BME280;27537;57.134;-2.136;2023-02-20T12:21:56;100244.22;;;12.72;100.00
41862;BME280;27537;57.134;-2.136;2023-02-20T12:30:37;100236.88;;;12.79;100.00
41862;BME280;27537;57.134;-2.136;2023-02-20T12:39:01;100218.91;;;12.87;100.00
41862;BME280;27537;57.134;-2.136;2023-02-20T12:47:01;100245.88;;;12.91;100.00
41862;BME280;27537;57.134;-2.136;2023-02-20T13:00:58;100236.28;;;12.25;100.00
41862;BME280;27537;57.134;-2.136;2023-02-20T13:03:48;100208.88;;;12.46;100.00
41862;BME280;27537;57.134;-2.136;2023-02-20T13:06:37;100237.72;;;12.80;100.00
41862;BME280;27537;57.134;-2.136;2023-02-20T13:09:17;100232.03;;;12.56;100.00
41862;BME280;27537;57.134;-2.136;2023-02-20T13:11:50;100267.69;;;12.60;100.00
41862;BME280;27537;57.134;-2.136;2023-02-20T13:17:00;100285.50;;;12.70;100.00
41862;BME280;27537;57.134;-2.136;2023-02-20T13:19:43;100284.13;;;12.63;100.00
41862;BME280;27537;57.134;-2.136;2023-02-20T13:22:11;100254.41;;;12.63;100.00
41862;BME280;27537;57.134;-2.136;2023-02-20T13:24:38;100249.94;;;12.31;100.00
41862;BME280;27537;57.134;-2.136;2023-02-20T13:27:11;100281.16;;;12.69;100.00
41862;BME280;27537;57.134;-2.136;2023-02-20T13:30:01;100286.31;;;12.55;100.00
41862;BME280;27537;57.134;-2.136;2023-02-20T13:32:35;100260.50;;;12.63;100.00
41862;BME280;27537;57.134;-2.136;2023-02-20T13:35:31;100302.06;;;13.04;100.00
41862;BME280;27537;57.134;-2.136;2023-02-20T13:38:12;100264.72;;;12.66;100.00
41862;BME280;27537;57.134;-2.136;2023-02-20T13:41:04;100308.16;;;13.05;100.00
41862;BME280;27537;57.134;-2.136;2023-02-20T13:43:35;100317.19;;;12.67;100.00
41862;BME280;27537;57.134;-2.136;2023-02-20T13:54:27;100344.06;;;12.22;100.00
41862;BME280;27537;57.134;-2.136;2023-02-20T13:59:10;100315.22;;;12.38;100.00
41862;BME280;27537;57.134;-2.136;2023-02-20T14:02:04;100358.16;;;12.54;100.00
41862;BME280;27537;57.134;-2.136;2023-02-20T14:04:37;100351.66;;;12.61;100.00
41862;BME280;27537;57.134;-2.136;2023-02-20T14:07:04;100303.84;;;12.54;100.00
41862;BME280;27537;57.134;-2.136;2023-02-20T14:09:31;100304.22;;;12.64;100.00
41862;BME280;27537;57.134;-2.136;2023-02-20T14:12:05;100354.63;;;13.04;100.00
41862;BME280;27537;57.134;-2.136;2023-02-20T14:14:37;100303.22;;;12.67;100.00
41862;BME280;27537;57.134;-2.136;2023-02-20T14:17:12;100317.88;;;12.87;100.00
41862;BME280;27537;57.134;-2.136;2023-02-20T14:19:44;100312.81;;;12.84;100.00
41862;BME280;27537;57.134;-2.136;2023-02-20T14:22:20;100358.00;;;13.06;100.00
41862;BME280;27537;57.134;-2.136;2023-02-20T14:27:34;100328.78;;;12.63;100.00
41862;BME280;27537;57.134;-2.136;2023-02-20T14:32:42;100351.28;;;12.51;100.00
41862;BME280;27537;57.134;-2.136;2023-02-20T14:35:39;100324.97;;;12.35;100.00
41862;BME280;27537;57.134;-2.136;2023-02-20T14:40:50;100289.47;;;11.76;100.00
41862;BME280;27537;57.134;-2.136;2023-02-20T14:43:20;100352.22;;;12.15;100.00
41862;BME280;27537;57.134;-2.136;2023-02-20T14:46:01;100327.56;;;11.83;100.00
41862;BME280;27537;57.134;-2.136;2023-02-20T14:48:31;100368.28;;;11.92;100.00
41862;BME280;27537;57.134;-2.136;2023-02-20T14:51:13;100369.81;;;11.96;100.00
41862;BME280;27537;57.134;-2.136;2023-02-20T14:53:42;100350.47;;;11.80;100.00
41862;BME280;27537;57.134;-2.136;2023-02-20T14:56:17;100311.44;;;11.73;100.00
41862;BME280;27537;57.134;-2.136;2023-02-20T14:58:45;100330.47;;;11.77;100.00
41862;BME280;27537;57.134;-2.136;2023-02-20T15:01:34;100372.84;;;12.06;100.00